createdAt,value
2022-09-30T00:01:36.430Z,97.40
2022-09-30T00:04:04.939Z,97.40
2022-09-30T00:06:35.079Z,97.40
2022-09-30T00:09:03.685Z,97.40
2022-09-30T00:11:36.164Z,97.40
2022-09-30T00:14:04.463Z,97.40
2022-09-30T00:16:35.299Z,97.40
2022-09-30T00:19:05.466Z,97.40
2022-09-30T00:21:34.866Z,97.40
2022-09-30T00:24:04.804Z,97.40
2022-09-30T00:26:36.162Z,97.40
2022-09-30T00:29:05.193Z,97.40
2022-09-30T00:31:36.087Z,97.40
2022-09-30T00:34:08.019Z,97.40
2022-09-30T00:36:40.511Z,97.40
2022-09-30T00:39:10.990Z,97.40
2022-09-30T00:41:40.543Z,97.40
2022-09-30T00:45:05.489Z,97.40
2022-09-30T00:47:46.913Z,97.40
2022-09-30T00:50:36.946Z,97.40
2022-09-30T00:53:18.967Z,97.40
2022-09-30T00:55:53.384Z,97.40
2022-09-30T00:58:30.581Z,97.40
2022-09-30T01:01:01.669Z,97.40
2022-09-30T01:03:32.968Z,97.40
2022-09-30T01:06:01.424Z,97.40
2022-09-30T01:08:31.684Z,97.40
2022-09-30T01:11:02.364Z,97.40
2022-09-30T01:13:36.377Z,97.40
2022-09-30T01:16:43.712Z,97.40
2022-09-30T01:20:05.390Z,97.40
2022-09-30T01:22:42.488Z,97.40
2022-09-30T01:25:54.319Z,97.40
2022-09-30T01:29:07.428Z,97.40
2022-09-30T01:31:50.202Z,97.40
2022-09-30T01:34:29.129Z,97.40
2022-09-30T01:37:09.122Z,97.40
2022-09-30T01:39:50.387Z,97.40
2022-09-30T01:42:28.935Z,97.40
2022-09-30T01:45:03.761Z,97.40
2022-09-30T01:47:37.979Z,97.40
2022-09-30T01:50:11.326Z,97.40
2022-09-30T01:52:46.830Z,97.40
2022-09-30T01:55:20.782Z,97.40
2022-09-30T01:57:56.542Z,97.40
2022-09-30T02:00:25.190Z,97.40
2022-09-30T02:03:00.040Z,97.40
2022-09-30T02:05:36.536Z,97.40
2022-09-30T02:08:09.907Z,97.40
2022-09-30T02:10:45.746Z,97.40
2022-09-30T02:13:20.156Z,97.40
2022-09-30T02:15:53.642Z,97.40
2022-09-30T02:18:30.634Z,97.40
2022-09-30T02:21:02.346Z,97.40
2022-09-30T02:23:34.382Z,97.40
2022-09-30T02:26:06.982Z,97.40
2022-09-30T02:28:41.874Z,97.40
2022-09-30T02:31:12.059Z,97.40
2022-09-30T02:33:46.226Z,97.40
2022-09-30T02:36:22.058Z,97.40
2022-09-30T02:39:00.115Z,97.40
2022-09-30T02:41:32.620Z,97.40
2022-09-30T02:44:03.441Z,97.40
2022-09-30T02:46:44.428Z,97.40
2022-09-30T02:49:22.123Z,97.40
2022-09-30T02:52:07.663Z,97.40
2022-09-30T02:54:45.467Z,97.40
2022-09-30T02:57:20.459Z,97.40
2022-09-30T02:59:52.321Z,97.40
2022-09-30T03:02:21.688Z,97.40
2022-09-30T03:04:52.125Z,97.40
2022-09-30T03:07:20.478Z,97.40
2022-09-30T03:09:48.586Z,97.40
2022-09-30T03:12:32.150Z,97.40
2022-09-30T03:15:31.135Z,97.40
2022-09-30T03:18:24.770Z,97.40
2022-09-30T03:21:09.656Z,97.40
2022-09-30T03:24:03.215Z,97.40
2022-09-30T03:26:41.636Z,97.40
2022-09-30T03:29:20.247Z,97.40
2022-09-30T03:32:01.782Z,97.40
2022-09-30T03:34:37.682Z,97.40
2022-09-30T03:37:19.614Z,97.40
2022-09-30T03:39:57.347Z,97.40
2022-09-30T03:42:29.372Z,97.40
2022-09-30T03:45:05.461Z,97.40
2022-09-30T03:47:39.035Z,97.40
2022-09-30T03:50:11.332Z,97.40
2022-09-30T03:52:40.990Z,97.40
2022-09-30T03:55:11.641Z,97.40
2022-09-30T03:57:39.756Z,97.40
2022-09-30T04:00:09.665Z,97.40
2022-09-30T04:02:37.868Z,97.40
2022-09-30T04:05:08.447Z,97.40
2022-09-30T04:07:36.763Z,97.40
2022-09-30T04:10:07.587Z,97.40
2022-09-30T04:12:35.675Z,97.40
2022-09-30T04:15:03.786Z,97.40
2022-09-30T04:17:31.929Z,97.40
2022-09-30T04:19:59.987Z,97.40
2022-09-30T04:22:28.083Z,97.40
2022-09-30T04:24:56.342Z,97.40
2022-09-30T04:27:26.006Z,97.40
2022-09-30T04:29:54.059Z,97.40
2022-09-30T04:32:23.394Z,97.40
2022-09-30T04:34:51.669Z,97.40
2022-09-30T04:37:19.746Z,97.40
2022-09-30T04:39:47.920Z,97.40
2022-09-30T04:42:16.557Z,97.40
2022-09-30T04:44:46.070Z,97.40
2022-09-30T04:47:14.996Z,97.40
2022-09-30T04:49:43.091Z,97.40
2022-09-30T04:52:11.191Z,97.40
2022-09-30T04:54:39.552Z,97.40
2022-09-30T04:57:07.629Z,97.40
2022-09-30T04:59:35.733Z,97.40
2022-09-30T05:02:05.430Z,97.40
2022-09-30T05:04:33.781Z,97.40
2022-09-30T05:07:01.919Z,97.40
2022-09-30T05:09:30.114Z,97.40
2022-09-30T05:11:58.318Z,97.40
2022-09-30T05:14:26.371Z,97.40
2022-09-30T05:16:54.443Z,97.40
2022-09-30T05:19:24.017Z,97.40
2022-09-30T05:21:53.038Z,97.40
2022-09-30T05:24:21.313Z,97.40
2022-09-30T05:26:49.486Z,97.40
2022-09-30T05:29:17.567Z,97.40
2022-09-30T05:31:45.920Z,97.40
2022-09-30T05:34:16.622Z,97.40
2022-09-30T05:36:46.092Z,97.40
2022-09-30T05:39:14.504Z,97.40
2022-09-30T05:41:42.664Z,97.40
2022-09-30T05:44:11.162Z,97.40
2022-09-30T05:46:39.331Z,97.40
2022-09-30T05:49:07.433Z,97.40
2022-09-30T05:51:36.334Z,97.40
2022-09-30T05:54:07.121Z,97.40
2022-09-30T05:56:35.554Z,97.40
2022-09-30T05:59:03.643Z,97.40
2022-09-30T06:01:31.850Z,97.40
2022-09-30T06:04:00.349Z,97.40
2022-09-30T06:06:28.679Z,97.40
2022-09-30T06:08:57.397Z,97.40
2022-09-30T06:11:26.862Z,97.40
2022-09-30T06:13:54.913Z,97.40
2022-09-30T06:16:23.990Z,97.40
2022-09-30T06:18:52.148Z,97.40
2022-09-30T06:21:22.692Z,97.40
2022-09-30T06:23:50.844Z,97.40
2022-09-30T06:26:18.957Z,97.40
2022-09-30T06:28:48.377Z,97.40
2022-09-30T06:31:16.500Z,97.40
2022-09-30T06:33:45.260Z,97.40
2022-09-30T06:36:13.848Z,97.40
2022-09-30T06:38:41.961Z,97.40
2022-09-30T06:41:10.865Z,97.40
2022-09-30T06:43:42.675Z,97.40
2022-09-30T06:46:30.315Z,97.40
2022-09-30T06:49:13.509Z,97.40
2022-09-30T06:51:42.349Z,97.40
2022-09-30T06:54:10.899Z,97.40
2022-09-30T06:56:39.026Z,97.40
2022-09-30T06:59:07.195Z,97.40
2022-09-30T07:01:36.705Z,97.40
2022-09-30T07:04:09.588Z,97.40
2022-09-30T07:06:39.309Z,97.40
2022-09-30T07:09:08.231Z,97.40
2022-09-30T07:11:37.637Z,97.40
2022-09-30T07:14:06.332Z,97.40
2022-09-30T07:16:35.963Z,97.40
2022-09-30T07:19:06.789Z,97.40
2022-09-30T07:21:34.979Z,97.40
2022-09-30T07:24:03.381Z,97.40
2022-09-30T07:26:31.708Z,97.40
2022-09-30T07:29:00.954Z,97.40
2022-09-30T07:31:34.699Z,97.40
2022-09-30T07:34:07.940Z,97.40
2022-09-30T07:36:38.230Z,97.40
2022-09-30T07:39:09.661Z,97.40
2022-09-30T07:41:40.772Z,97.40
2022-09-30T07:44:14.141Z,97.40
2022-09-30T07:46:43.604Z,97.40
2022-09-30T07:49:24.757Z,97.40
2022-09-30T07:51:55.276Z,97.40
2022-09-30T07:54:25.829Z,97.40
2022-09-30T07:57:11.111Z,97.40
2022-09-30T07:59:42.474Z,97.40
2022-09-30T08:02:16.629Z,97.40
2022-09-30T08:04:46.535Z,97.40
2022-09-30T08:07:16.948Z,97.40
2022-09-30T08:09:45.236Z,96.40
2022-09-30T08:12:13.470Z,92.90
2022-09-30T08:14:41.822Z,92.30
2022-09-30T08:17:09.934Z,92.60
2022-09-30T08:19:38.142Z,94.50
2022-09-30T08:22:10.455Z,90.70
2022-09-30T08:24:38.544Z,92.50
2022-09-30T08:27:06.670Z,91.30
2022-09-30T08:29:55.197Z,87.70
2022-09-30T08:32:22.864Z,90.20
2022-09-30T08:34:50.975Z,89.40
2022-09-30T08:37:20.374Z,85.50
2022-09-30T08:39:48.544Z,88.20
2022-09-30T08:42:41.351Z,87.30
2022-09-30T08:45:31.226Z,87.50
2022-09-30T08:48:21.500Z,88.40
2022-09-30T08:51:02.758Z,88.80
2022-09-30T08:53:36.547Z,90.60
2022-09-30T08:56:06.738Z,89.40
2022-09-30T08:58:39.321Z,90.90
2022-09-30T09:01:18.264Z,89.70
2022-09-30T09:03:46.718Z,91.10
2022-09-30T09:06:27.581Z,91.00
2022-09-30T09:09:32.551Z,90.10
2022-09-30T09:12:12.364Z,86.80
2022-09-30T09:14:54.506Z,89.70
2022-09-30T09:17:38.524Z,90.40
2022-09-30T09:20:15.312Z,88.10
2022-09-30T09:22:44.465Z,84.90
2022-09-30T09:25:18.692Z,81.40
2022-09-30T09:27:54.161Z,80.20
2022-09-30T09:30:24.811Z,73.70
2022-09-30T09:32:57.010Z,75.20
2022-09-30T09:35:37.661Z,68.90
2022-09-30T09:38:26.882Z,65.10
2022-09-30T09:41:13.432Z,62.20
2022-09-30T09:43:53.799Z,60.10
2022-09-30T09:46:28.043Z,58.00
2022-09-30T09:49:41.783Z,56.70
2022-09-30T09:52:54.781Z,51.90
2022-09-30T09:55:24.540Z,52.80
2022-09-30T09:58:10.543Z,55.10
2022-09-30T10:00:55.686Z,50.00
2022-09-30T10:03:27.881Z,47.90
2022-09-30T10:06:06.812Z,52.30
2022-09-30T10:08:37.113Z,52.30
2022-09-30T10:11:08.998Z,52.20
2022-09-30T10:13:46.104Z,50.20
2022-09-30T10:16:29.974Z,46.50
2022-09-30T10:18:59.139Z,47.20
2022-09-30T10:21:29.454Z,49.30
2022-09-30T10:23:59.843Z,41.80
2022-09-30T10:26:29.819Z,44.40
2022-09-30T10:29:03.976Z,41.80
2022-09-30T10:31:35.750Z,40.90
2022-09-30T10:34:12.794Z,41.10
2022-09-30T10:36:44.637Z,39.70
2022-09-30T10:39:24.678Z,42.00
2022-09-30T10:42:02.400Z,39.10
2022-09-30T10:44:32.324Z,36.60
2022-09-30T10:47:03.619Z,37.10
2022-09-30T10:49:38.019Z,32.10
2022-09-30T10:52:06.470Z,33.70
2022-09-30T10:54:49.953Z,32.70
2022-09-30T10:57:23.738Z,35.90
2022-09-30T11:00:00.547Z,32.20
2022-09-30T11:02:37.039Z,32.50
2022-09-30T11:05:17.940Z,31.00
2022-09-30T11:07:51.197Z,30.90
2022-09-30T11:10:42.804Z,33.40
2022-09-30T11:13:22.973Z,29.60
2022-09-30T11:16:03.987Z,31.50
2022-09-30T11:18:39.215Z,29.70
2022-09-30T11:21:15.341Z,31.30
2022-09-30T11:23:49.958Z,34.50
2022-09-30T11:26:32.465Z,38.20
2022-09-30T11:29:37.923Z,41.50
2022-09-30T11:32:21.651Z,43.30
2022-09-30T11:35:02.747Z,42.30
2022-09-30T11:37:45.209Z,42.40
2022-09-30T11:40:31.426Z,42.10
2022-09-30T11:43:13.625Z,43.00
2022-09-30T11:45:57.865Z,44.00
2022-09-30T11:48:49.178Z,47.00
2022-09-30T11:51:25.853Z,49.90
2022-09-30T11:54:04.828Z,52.20
2022-09-30T11:56:44.718Z,55.20
2022-09-30T11:59:20.883Z,56.90
2022-09-30T12:01:54.299Z,58.00
2022-09-30T12:04:32.075Z,60.10
2022-09-30T12:07:05.548Z,61.60
2022-09-30T12:09:40.192Z,62.70
2022-09-30T12:12:16.479Z,66.80
2022-09-30T12:14:49.437Z,66.80
2022-09-30T12:17:27.747Z,67.90
2022-09-30T12:20:03.415Z,62.30
2022-09-30T12:22:39.426Z,59.30
2022-09-30T12:25:18.046Z,59.30
2022-09-30T12:27:51.014Z,60.90
2022-09-30T12:30:22.976Z,60.90
2022-09-30T12:33:28.705Z,60.90
2022-09-30T12:36:32.493Z,60.90
2022-09-30T12:39:42.510Z,62.30
2022-09-30T12:42:36.422Z,62.30
2022-09-30T12:45:54.999Z,66.80
2022-09-30T12:48:28.090Z,63.30
2022-09-30T12:50:58.416Z,57.80
2022-09-30T12:53:32.065Z,56.70
2022-09-30T12:56:06.116Z,56.90
2022-09-30T12:58:38.689Z,56.90
2022-09-30T13:01:13.564Z,54.00
2022-09-30T13:03:52.847Z,52.30
2022-09-30T13:06:25.220Z,48.10
2022-09-30T13:09:22.342Z,46.40
2022-09-30T13:12:17.991Z,43.50
2022-09-30T13:14:46.168Z,39.70
2022-09-30T13:17:28.114Z,41.10
2022-09-30T13:19:57.311Z,38.50
2022-09-30T13:22:59.169Z,38.00
2022-09-30T13:25:28.769Z,35.00
2022-09-30T13:28:32.000Z,35.40
2022-09-30T13:31:19.090Z,35.10
2022-09-30T13:33:50.116Z,36.50
2022-09-30T13:36:28.283Z,30.20
2022-09-30T13:39:21.520Z,32.50
2022-09-30T13:42:04.116Z,32.50
2022-09-30T13:44:59.584Z,33.00
2022-09-30T13:47:33.998Z,31.30
2022-09-30T13:50:13.810Z,33.10
2022-09-30T13:52:43.705Z,34.70
2022-09-30T13:55:21.427Z,30.10
2022-09-30T13:58:05.781Z,29.90
2022-09-30T14:00:49.795Z,29.10
2022-09-30T14:03:40.262Z,29.50
2022-09-30T14:06:20.304Z,28.70
2022-09-30T14:09:34.145Z,26.30
2022-09-30T14:12:19.172Z,30.10
2022-09-30T14:15:24.355Z,31.30
2022-09-30T14:18:23.401Z,31.20
2022-09-30T14:21:09.390Z,32.10
2022-09-30T14:23:37.870Z,28.90
2022-09-30T14:26:26.284Z,29.40
2022-09-30T14:29:02.792Z,31.00
2022-09-30T14:31:33.598Z,32.80
2022-09-30T14:34:01.770Z,35.10
2022-09-30T14:36:30.142Z,35.00
2022-09-30T14:39:01.488Z,33.60
2022-09-30T14:41:31.358Z,33.70
2022-09-30T14:44:04.897Z,34.20
2022-09-30T14:46:38.678Z,32.70
2022-09-30T14:49:10.598Z,32.70
2022-09-30T14:51:43.623Z,35.00
2022-09-30T14:54:20.768Z,36.80
2022-09-30T14:56:50.435Z,39.20
2022-09-30T14:59:22.861Z,35.70
2022-09-30T15:01:55.972Z,36.90
2022-09-30T15:04:31.305Z,37.90
2022-09-30T15:07:01.379Z,40.00
2022-09-30T15:09:34.539Z,39.40
2022-09-30T15:12:08.061Z,36.00
2022-09-30T15:14:48.084Z,39.50
2022-09-30T15:17:22.124Z,41.10
2022-09-30T15:19:50.612Z,40.50
2022-09-30T15:22:19.722Z,39.80
2022-09-30T15:24:48.904Z,37.90
2022-09-30T15:27:23.041Z,40.50
2022-09-30T15:29:58.717Z,42.00
2022-09-30T15:32:31.214Z,43.00
2022-09-30T15:35:05.999Z,44.40
2022-09-30T15:37:34.851Z,45.20
2022-09-30T15:40:21.583Z,45.30
2022-09-30T15:42:59.207Z,47.00
2022-09-30T15:45:35.067Z,48.80
2022-09-30T15:48:08.222Z,49.70
2022-09-30T15:50:41.744Z,50.00
2022-09-30T15:53:22.717Z,51.00
2022-09-30T15:55:55.561Z,51.40
2022-09-30T15:58:37.810Z,52.50
2022-09-30T16:01:17.515Z,53.90
2022-09-30T16:04:00.232Z,56.90
2022-09-30T16:06:35.152Z,58.10
2022-09-30T16:09:08.580Z,59.50
2022-09-30T16:11:41.078Z,61.60
2022-09-30T16:14:17.811Z,63.50
2022-09-30T16:16:53.761Z,63.70
2022-09-30T16:19:26.206Z,65.70
2022-09-30T16:21:55.794Z,70.90
2022-09-30T16:24:47.800Z,71.50
2022-09-30T16:27:33.158Z,74.50
2022-09-30T16:30:02.298Z,76.10
2022-09-30T16:32:36.885Z,76.70
2022-09-30T16:35:08.460Z,77.80
2022-09-30T16:37:36.645Z,77.40
2022-09-30T16:40:20.810Z,78.00
2022-09-30T16:42:48.906Z,80.00
2022-09-30T16:45:18.384Z,81.90
2022-09-30T16:47:47.061Z,82.30
2022-09-30T16:50:29.334Z,85.30
2022-09-30T16:52:57.723Z,85.50
2022-09-30T16:55:26.612Z,90.90
2022-09-30T16:57:57.935Z,91.40
2022-09-30T17:00:26.980Z,91.30
2022-09-30T17:02:55.240Z,92.30
2022-09-30T17:05:27.693Z,93.30
2022-09-30T17:07:59.677Z,94.60
2022-09-30T17:10:30.242Z,95.30
2022-09-30T17:13:03.603Z,95.20
2022-09-30T17:15:35.013Z,96.80
2022-09-30T17:18:07.960Z,97.40
2022-09-30T17:20:38.797Z,96.60
2022-09-30T17:23:07.613Z,97.40
2022-09-30T17:25:36.263Z,96.70
2022-09-30T17:28:04.398Z,97.40
2022-09-30T17:30:34.491Z,97.40
2022-09-30T17:33:02.561Z,97.40
2022-09-30T17:35:30.874Z,97.40
2022-09-30T17:38:01.209Z,97.40
2022-09-30T17:40:43.202Z,97.40
2022-09-30T17:43:14.407Z,97.40
2022-09-30T17:45:46.079Z,97.40
2022-09-30T17:48:16.819Z,97.40
2022-09-30T17:50:47.663Z,97.40
2022-09-30T17:53:18.877Z,97.40
2022-09-30T17:55:49.067Z,97.40
2022-09-30T17:58:18.648Z,97.40
2022-09-30T18:00:47.418Z,97.40
2022-09-30T18:03:16.078Z,97.40
2022-09-30T18:05:44.557Z,97.40
2022-09-30T18:08:13.753Z,97.40
2022-09-30T18:10:43.168Z,97.40
2022-09-30T18:13:11.475Z,97.40
2022-09-30T18:15:39.904Z,97.40
2022-09-30T18:18:08.079Z,97.40
2022-09-30T18:20:36.285Z,97.40
2022-09-30T18:23:04.786Z,97.40
2022-09-30T18:25:33.061Z,97.40
2022-09-30T18:28:03.463Z,97.40
2022-09-30T18:30:31.574Z,97.40
2022-09-30T18:32:59.980Z,97.40
2022-09-30T18:35:30.123Z,97.40
2022-09-30T18:37:58.228Z,97.40
2022-09-30T18:40:31.697Z,97.40
2022-09-30T18:43:05.735Z,97.40
2022-09-30T18:45:38.183Z,97.40
2022-09-30T18:48:07.341Z,97.40
2022-09-30T18:50:35.733Z,97.40
2022-09-30T18:53:09.571Z,97.40
2022-09-30T18:55:38.951Z,97.40
2022-09-30T18:58:08.397Z,97.40
2022-09-30T19:00:37.622Z,97.40
2022-09-30T19:03:05.804Z,97.40
2022-09-30T19:05:34.021Z,97.40
2022-09-30T19:08:02.697Z,97.40
2022-09-30T19:10:30.846Z,97.40
2022-09-30T19:12:59.874Z,97.40
2022-09-30T19:15:29.377Z,97.40
2022-09-30T19:17:58.599Z,97.40
2022-09-30T19:20:27.967Z,97.40
2022-09-30T19:22:56.079Z,97.40
2022-09-30T19:25:24.142Z,97.40
2022-09-30T19:27:53.017Z,97.40
2022-09-30T19:30:24.054Z,97.40
2022-09-30T19:32:59.178Z,97.40
2022-09-30T19:35:38.386Z,97.40
2022-09-30T19:38:09.217Z,97.40
2022-09-30T19:40:37.573Z,97.40
2022-09-30T19:43:08.064Z,97.40
2022-09-30T19:45:36.215Z,97.40
2022-09-30T19:48:05.832Z,97.40
2022-09-30T19:50:34.682Z,97.40
2022-09-30T19:53:02.765Z,97.40
2022-09-30T19:55:39.279Z,97.40
2022-09-30T19:58:14.068Z,97.40
2022-09-30T20:00:42.590Z,97.40
2022-09-30T20:03:12.840Z,97.40
2022-09-30T20:05:43.864Z,97.40
2022-09-30T20:08:11.993Z,97.40
2022-09-30T20:10:40.123Z,97.40
2022-09-30T20:13:08.231Z,97.40
2022-09-30T20:15:55.224Z,97.40
2022-09-30T20:18:24.785Z,97.40
2022-09-30T20:20:53.308Z,97.40
2022-09-30T20:23:22.181Z,97.40
2022-09-30T20:25:51.379Z,97.40
2022-09-30T20:28:20.763Z,97.40
2022-09-30T20:30:49.557Z,97.40
2022-09-30T20:33:19.874Z,97.40
2022-09-30T20:35:49.508Z,97.40
2022-09-30T20:38:24.753Z,97.40
2022-09-30T20:40:56.541Z,97.40
2022-09-30T20:43:29.973Z,97.40
2022-09-30T20:46:01.315Z,97.40
2022-09-30T20:48:33.703Z,97.40
2022-09-30T20:51:06.215Z,97.40
2022-09-30T20:53:39.312Z,97.40
2022-09-30T20:56:08.987Z,97.40
2022-09-30T20:58:37.868Z,97.40
2022-09-30T21:01:09.682Z,97.40
2022-09-30T21:03:39.757Z,97.40
2022-09-30T21:06:11.693Z,97.40
2022-09-30T21:08:42.931Z,97.40
2022-09-30T21:11:11.941Z,97.40
2022-09-30T21:13:43.938Z,97.40
2022-09-30T21:16:14.990Z,97.40
2022-09-30T21:18:43.322Z,97.40
2022-09-30T21:21:14.371Z,97.40
2022-09-30T21:23:42.700Z,97.40
2022-09-30T21:26:13.586Z,97.40
2022-09-30T21:28:46.733Z,97.40
2022-09-30T21:31:20.266Z,97.40
2022-09-30T21:33:51.689Z,97.40
2022-09-30T21:36:22.054Z,97.40
2022-09-30T21:38:51.316Z,97.40
2022-09-30T21:41:20.550Z,97.40
2022-09-30T21:43:49.091Z,97.40
2022-09-30T21:46:18.413Z,97.40
2022-09-30T21:48:46.991Z,97.40
2022-09-30T21:51:15.402Z,97.40
2022-09-30T21:53:46.777Z,97.40
2022-09-30T21:56:14.914Z,97.40
2022-09-30T21:58:43.019Z,97.40
2022-09-30T22:01:11.769Z,97.40
2022-09-30T22:03:40.026Z,97.40
2022-09-30T22:06:09.722Z,97.40
2022-09-30T22:08:41.066Z,97.40
2022-09-30T22:11:13.427Z,97.40
2022-09-30T22:13:44.603Z,97.40
2022-09-30T22:16:15.405Z,97.40
2022-09-30T22:18:44.581Z,97.40
2022-09-30T22:21:15.471Z,97.40
2022-09-30T22:23:44.021Z,97.40
2022-09-30T22:26:16.889Z,97.40
2022-09-30T22:28:46.307Z,97.40
2022-09-30T22:31:17.473Z,97.40
2022-09-30T22:34:03.475Z,97.40
2022-09-30T22:36:49.525Z,97.40
2022-09-30T22:39:18.042Z,97.40
2022-09-30T22:41:47.601Z,97.40
2022-09-30T22:44:16.739Z,97.40
2022-09-30T22:46:45.274Z,97.40
2022-09-30T22:49:13.357Z,97.40
2022-09-30T22:51:41.916Z,97.40
2022-09-30T22:54:10.199Z,97.40
2022-09-30T22:56:38.255Z,97.40
2022-09-30T22:59:07.751Z,97.40
2022-09-30T23:01:36.151Z,97.40
2022-09-30T23:04:05.324Z,97.40
2022-09-30T23:06:33.463Z,97.40
2022-09-30T23:09:05.387Z,97.40
2022-09-30T23:11:35.610Z,97.40
2022-09-30T23:14:04.272Z,97.40
2022-09-30T23:16:33.797Z,97.40
2022-09-30T23:19:01.971Z,97.40
2022-09-30T23:21:30.209Z,97.40
2022-09-30T23:23:58.428Z,97.40
2022-09-30T23:26:29.371Z,97.40
2022-09-30T23:28:58.825Z,97.40
2022-09-30T23:31:27.492Z,97.40
2022-09-30T23:33:59.535Z,97.40
2022-09-30T23:36:30.427Z,97.40
2022-09-30T23:39:03.180Z,97.40
2022-09-30T23:41:32.126Z,97.40
2022-09-30T23:44:01.113Z,97.40
2022-09-30T23:46:29.216Z,97.40
2022-09-30T23:48:59.103Z,97.40
2022-09-30T23:51:27.351Z,97.40
2022-09-30T23:53:55.777Z,97.40
2022-09-30T23:56:23.900Z,97.40
2022-09-30T23:58:51.971Z,97.40
